METAR Data
IDs: Format: Raw Decoded Include TAF

Data at: 1413 UTC 10 Aug 2022

KJAQ 101355Z AUTO 00000KT 10SM CLR 15/09 A3006 RMK AO1 T01470093
KJAQ 101335Z AUTO 00000KT 10SM CLR 15/09 A3005 RMK AO1 T01450094
KJAQ 101315Z AUTO 00000KT 10SM CLR 14/09 A3005 RMK AO1 T01410090
KJAQ 101255Z AUTO 00000KT 10SM CLR 15/09 A3004 RMK AO1 T01450091
KJAQ 101235Z AUTO 00000KT 10SM CLR 15/09 A3004 RMK AO1 T01460091
KJAQ 101215Z AUTO 00000KT 10SM CLR 14/09 A3004 RMK AO1 T01410094
KJAQ 101155Z AUTO 00000KT 10SM CLR 15/10 A3004 RMK AO1 T01450104 10181 20145
KJAQ 101135Z AUTO 00000KT 10SM CLR 15/12 A3004 RMK AO1 T01490120
KJAQ 101115Z AUTO 00000KT 10SM CLR 15/12 A3004 RMK AO1 T01510115
KJAQ 101055Z AUTO 00000KT 10SM CLR 16/11 A3003 RMK AO1 T01550110
KJAQ 101035Z AUTO 00000KT 10SM CLR 16/10 A3003 RMK AO1 T01610100
KJAQ 101015Z AUTO 00000KT 10SM CLR 17/10 A3003 RMK AO1 T01720101
KJAQ 100955Z AUTO 03003KT 10SM CLR 18/09 A3003 RMK AO1 T01800085
KJAQ 100935Z AUTO 00000KT 10SM CLR 17/10 A3004 RMK AO1 T01720101
KJAQ 100915Z AUTO 00000KT 10SM CLR 18/09 A3003 RMK AO1 T01780090
KJAQ 100855Z AUTO 00000KT 10SM CLR 17/09 A3003 RMK AO1 T01720093
KJAQ 100835Z AUTO 00000KT 10SM CLR 17/10 A3004 RMK AO1 T01720097
KJAQ 100815Z AUTO 03003KT 10SM CLR 17/10 A3004 RMK AO1 T01700097
KJAQ 100755Z AUTO 03003KT 10SM CLR 17/10 A3004 RMK AO1 T01690096 402990157
KJAQ 100735Z AUTO 36004KT 10SM CLR 18/10 A3004 RMK AO1 T01760096
KJAQ 100715Z AUTO 36004KT 10SM CLR 18/10 A3004 RMK AO1 T01770097
KJAQ 100655Z AUTO 36005KT 10SM CLR 18/10 A3004 RMK AO1 T01770100
KJAQ 100635Z AUTO 35005KT 10SM CLR 18/10 A3004 RMK AO1 T01780104
KJAQ 100615Z AUTO 36006KT 10SM CLR 18/11 A3004 RMK AO1 T01800106
KJAQ 100555Z AUTO 35007KT 10SM CLR 18/11 A3004 RMK AO1 T01810112 10296 20180
KJAQ 100535Z AUTO 34006KT 10SM CLR 19/11 A3004 RMK AO1 T01850113
KJAQ 100515Z AUTO 32005KT 10SM CLR 19/11 A3003 RMK AO1 T01900113
KJAQ 100455Z AUTO 31005KT 10SM SCT110 20/11 A3003 RMK AO1 T01960111
KJAQ 100435Z AUTO 32003KT 10SM SCT110 20/11 A3002 RMK AO1 T02020109
KJAQ 100415Z AUTO 31004KT 10SM SCT110 21/11 A3001 RMK AO1 T02100110
KJAQ 100355Z AUTO 31005KT 10SM BKN110 22/11 A3001 RMK AO1 T02170106
KJAQ 100335Z AUTO 30006KT 10SM BKN110 23/11 A3000 RMK AO1 T02260105
KJAQ 100315Z AUTO 30007KT 10SM SCT110 24/10 A3000 RMK AO1 T02370100
KJAQ 100255Z AUTO 35004KT 10SM SCT100 25/10 A2999 RMK AO1 T02460096
KJAQ 100235Z AUTO 30008KT 10SM CLR 26/09 A2999 RMK AO1 T02580093
KJAQ 100215Z AUTO 29007KT 10SM BKN110 27/09 A2999 RMK AO1 T02680091
KJAQ 100155Z AUTO 31008KT 270V330 10SM OVC110 28/08 A2998 RMK AO1 T02820079
KJAQ 100135Z AUTO 26007G38KT 240V330 10SM OVC110 29/07 A2998 RMK AO1 T02880074
KJAQ 100115Z AUTO 32006KT 10SM BKN110 28/08 A2998 RMK AO1 T02830075
KJAQ 100055Z AUTO 30007KT 10SM BKN110 28/08 A2998 RMK AO1 T02750079
KJAQ 100035Z AUTO 30007KT 250V320 10SM SCT120 28/08 A2998 RMK AO1 T02800081
KJAQ 100015Z AUTO 28008KT 270V330 10SM CLR 30/09 A2997 RMK AO1 T02950085
KJAQ 092355Z AUTO 29007KT 270V340 10SM CLR 30/09 A2997 RMK AO1 T02960086 10299 20231
KJAQ 092335Z AUTO 27006KT 10SM CLR 30/08 A2997 RMK AO1 T02950083
KJAQ 092315Z AUTO 27005KT 10SM CLR 30/09 A2998 RMK AO1 T02950087
KJAQ 092255Z AUTO 32006KT 10SM CLR 29/09 A2998 RMK AO1 T02910085
KJAQ 092235Z AUTO 00000KT 10SM CLR 29/08 A2998 RMK AO1 T02890081
KJAQ 092215Z AUTO 30005KT 10SM CLR 29/09 A2999 RMK AO1 T02870090
KJAQ 092155Z AUTO 27007KT 10SM CLR 28/10 A3000 RMK AO1 T02790095
KJAQ 092135Z AUTO 31006KT 10SM CLR 28/08 A3000 RMK AO1 T02750076
KJAQ 092115Z AUTO 28007KT 10SM CLR 27/09 A3000 RMK AO1 T02720088
KJAQ 092055Z AUTO 27006KT 10SM CLR 27/09 A3000 RMK AO1 T02660088
KJAQ 092035Z AUTO 28006KT 10SM CLR 26/10 A3000 RMK AO1 T02630095
KJAQ 092015Z AUTO 29007KT 10SM CLR 25/08 A3001 RMK AO1 T02520083
KJAQ 091955Z AUTO 27007KT 10SM CLR 25/08 A3001 RMK AO1 T02460080
KJAQ 091935Z AUTO 27006KT 10SM CLR 24/09 A3001 RMK AO1 T02400094
KJAQ 091915Z AUTO 28006KT 10SM CLR 24/09 A3001 RMK AO1 T02410091
KJAQ 091855Z AUTO 28006KT 10SM CLR 24/10 A3001 RMK AO1 T02430099
KJAQ 091835Z AUTO 24007KT 10SM CLR 24/11 A3001 RMK AO1 T02350110
KJAQ 091815Z AUTO 25006KT 10SM CLR 23/10 A3001 RMK AO1 T02330101
KJAQ 091755Z AUTO 23004KT 10SM CLR 24/09 A3001 RMK AO1 T02350085 10235 20157
KJAQ 091735Z AUTO 25004KT 10SM CLR 23/10 A3000 RMK AO1 T02280099
KJAQ 091715Z AUTO 20003KT 10SM CLR 22/10 A3000 RMK AO1 T02220095
KJAQ 091655Z AUTO 21003KT 10SM CLR 22/11 A3000 RMK AO1 T02190107
KJAQ 091635Z AUTO 22003KT 10SM CLR 22/11 A3000 RMK AO1 T02170105
KJAQ 091615Z AUTO 00000KT 10SM CLR 21/10 A3000 RMK AO1 T02120102
KJAQ 091555Z AUTO 00000KT 10SM SCT120 20/11 A3000 RMK AO1 T02030108
KJAQ 091535Z AUTO 00000KT 10SM CLR 20/11 A3000 RMK AO1 T01980112
KJAQ 091515Z AUTO 20003KT 10SM CLR 19/11 A3000 RMK AO1 T01920108
KJAQ 091455Z AUTO 00000KT 10SM CLR 19/11 A2999 RMK AO1 T01930107
KJAQ 091435Z AUTO 11004KT 10SM CLR 18/11 A2999 RMK AO1 T01780105
KJAQ 091415Z AUTO 00000KT 10SM CLR 17/10 A2999 RMK AO1 T01680102
KJAQ 091355Z AUTO 00000KT 10SM CLR 17/10 A2999 RMK AO1 T01650102
KJAQ 091335Z AUTO 00000KT 10SM CLR 16/10 A2998 RMK AO1 T01600100
KJAQ 091315Z AUTO 00000KT 10SM CLR 16/10 A2998 RMK AO1 T01600102
KJAQ 091255Z AUTO 15003KT 10SM CLR 16/10 A2998 RMK AO1 T01600098
KJAQ 091235Z AUTO 00000KT 10SM CLR 16/10 A2997 RMK AO1 T01580095
KJAQ 091215Z AUTO 00000KT 10SM CLR 16/10 A2996 RMK AO1 T01600096
KJAQ 091155Z AUTO 00000KT 10SM SCT120 16/10 A2996 RMK AO1 T01600095 10209 20160
KJAQ 091135Z AUTO 00000KT 10SM SCT120 17/10 A2996 RMK AO1 T01660099
KJAQ 091115Z AUTO 00000KT 10SM SCT120 17/10 A2996 RMK AO1 T01720101
KJAQ 091055Z AUTO 00000KT 10SM SCT120 17/10 A2995 RMK AO1 T01710096
KJAQ 091035Z AUTO 00000KT 10SM SCT120 17/10 A2996 RMK AO1 T01710099
KJAQ 091015Z AUTO 00000KT 10SM CLR 17/10 A2996 RMK AO1 T01700100
KJAQ 090955Z AUTO 00000KT 10SM CLR 17/10 A2996 RMK AO1 T01700097
KJAQ 090935Z AUTO 00000KT 10SM CLR 18/11 A2996 RMK AO1 T01770105
KJAQ 090915Z AUTO 17003KT 10SM CLR 19/10 A2997 RMK AO1 T01850098
KJAQ 090855Z AUTO 00000KT 10SM CLR 19/10 A2996 RMK AO1 T01870102
KJAQ 090835Z AUTO 00000KT 10SM CLR 19/10 A2996 RMK AO1 T01860100
KJAQ 090815Z AUTO 00000KT 10SM CLR 18/10 A2997 RMK AO1 T01830103
KJAQ 090755Z AUTO 00000KT 10SM CLR 19/11 A2997 RMK AO1 T01870105 403150151
KJAQ 090735Z AUTO 00000KT 10SM CLR 19/10 A2998 RMK AO1 T01910099
KJAQ 090715Z AUTO 00000KT 10SM CLR 20/10 A2998 RMK AO1 T02000095
KJAQ 090655Z AUTO 00000KT 10SM CLR 21/09 A2998 RMK AO1 T02050093
KJAQ 090635Z AUTO 00000KT 10SM CLR 21/09 A2997 RMK AO1 T02050093
KJAQ 090615Z AUTO 00000KT 10SM CLR 21/09 A2997 RMK AO1 T02080092
KJAQ 090555Z AUTO 00000KT 10SM CLR 21/09 A2998 RMK AO1 T02090090 10312 20209
KJAQ 090535Z AUTO 00000KT 10SM CLR 22/10 A2998 RMK AO1 T02160097
KJAQ 090515Z AUTO 00000KT 10SM CLR 22/10 A2998 RMK AO1 T02220100
KJAQ 090455Z AUTO 00000KT 10SM CLR 23/10 A2998 RMK AO1 T02270100
KJAQ 090435Z AUTO 00000KT 10SM CLR 23/10 A2998 RMK AO1 T02270101
KJAQ 090415Z AUTO 28003KT 10SM CLR 23/10 A2998 RMK AO1 T02340102
KJAQ 090355Z AUTO 28004KT 10SM CLR 24/10 A2997 RMK AO1 T02420101
KJAQ 090335Z AUTO 29005KT 10SM CLR 25/10 A2997 RMK AO1 T02500096
KJAQ 090315Z AUTO 28005KT 10SM CLR 26/09 A2996 RMK AO1 T02560089
KJAQ 090255Z AUTO 28006KT 10SM CLR 26/08 A2996 RMK AO1 T02620078
KJAQ 090235Z AUTO 27007KT 10SM CLR 27/08 A2995 RMK AO1 T02730083
KJAQ 090215Z AUTO 29005KT 10SM CLR 28/09 A2995 RMK AO1 T02840086